createdAt,value
2022-12-25T00:00:01.620Z,99566.12
2022-12-25T00:00:18.415Z,99563.83
2022-12-25T00:00:21.701Z,99567.72
2022-12-25T00:00:31.632Z,99569.36
2022-12-25T00:00:41.635Z,99565.14
2022-12-25T00:00:51.697Z,99563.33
2022-12-25T00:01:01.654Z,99570.20
2022-12-25T00:01:11.620Z,99564.42
2022-12-25T00:01:21.569Z,99562.50
2022-12-25T00:01:31.573Z,99563.73
2022-12-25T00:01:41.628Z,99565.77
2022-12-25T00:01:51.656Z,99565.66
2022-12-25T00:02:01.642Z,99563.95
2022-12-25T00:02:11.652Z,99563.10
2022-12-25T00:02:21.740Z,99564.34
2022-12-25T00:02:31.689Z,99568.40
2022-12-25T00:02:41.643Z,99567.58
2022-12-25T00:02:51.673Z,99563.10
2022-12-25T00:03:01.700Z,99563.43
2022-12-25T00:03:11.718Z,99563.54
2022-12-25T00:03:21.656Z,99563.25
2022-12-25T00:03:31.608Z,99564.39
2022-12-25T00:03:41.712Z,99566.87
2022-12-25T00:03:51.833Z,99562.92
2022-12-25T00:04:01.595Z,99563.14
2022-12-25T00:04:11.651Z,99563.91
2022-12-25T00:04:21.530Z,99566.88
2022-12-25T00:04:31.543Z,99565.50
2022-12-25T00:04:41.650Z,99563.72
2022-12-25T00:04:51.528Z,99562.78
2022-12-25T00:05:01.595Z,99558.84
2022-12-25T00:05:11.587Z,99561.63
2022-12-25T00:05:21.619Z,99565.26
2022-12-25T00:05:31.579Z,99560.73
2022-12-25T00:05:41.531Z,99562.35
2022-12-25T00:05:51.643Z,99563.20
2022-12-25T00:06:01.559Z,99567.70
2022-12-25T00:06:11.545Z,99560.23
2022-12-25T00:06:21.646Z,99563.02
2022-12-25T00:06:31.583Z,99561.61
2022-12-25T00:06:41.566Z,99559.56
2022-12-25T00:06:51.627Z,99564.72
2022-12-25T00:07:01.657Z,99559.48
2022-12-25T00:07:11.606Z,99555.67
2022-12-25T00:07:21.651Z,99555.69
2022-12-25T00:07:31.611Z,99553.94
2022-12-25T00:07:41.553Z,99553.88
2022-12-25T00:07:51.555Z,99554.92
2022-12-25T00:08:01.542Z,99558.44
2022-12-25T00:08:11.606Z,99552.02
2022-12-25T00:08:21.660Z,99553.31
2022-12-25T00:08:31.588Z,99553.48
2022-12-25T00:08:41.533Z,99553.31
2022-12-25T00:08:51.563Z,99554.80
2022-12-25T00:09:01.597Z,99555.62
2022-12-25T00:09:11.592Z,99556.28
2022-12-25T00:09:21.558Z,99554.69
2022-12-25T00:09:31.648Z,99554.67
2022-12-25T00:09:41.582Z,99556.48
2022-12-25T00:09:51.614Z,99558.05
2022-12-25T00:10:01.548Z,99558.86
2022-12-25T00:10:11.617Z,99558.32
2022-12-25T00:10:21.646Z,99554.52
2022-12-25T00:10:31.622Z,99558.81
2022-12-25T00:10:45.174Z,99558.98
2022-12-25T00:10:51.563Z,99559.64
2022-12-25T00:11:01.607Z,99554.16
2022-12-25T00:11:11.555Z,99558.33
2022-12-25T00:11:21.657Z,99557.07
2022-12-25T00:11:31.554Z,99561.78
2022-12-25T00:11:41.593Z,99558.38
2022-12-25T00:11:51.560Z,99560.75
2022-12-25T00:12:01.579Z,99561.47
2022-12-25T00:12:11.567Z,99561.19
2022-12-25T00:12:21.530Z,99563.03
2022-12-25T00:12:31.622Z,99562.42
2022-12-25T00:12:41.581Z,99557.58
2022-12-25T00:12:51.535Z,99562.27
2022-12-25T00:13:01.645Z,99562.23
2022-12-25T00:13:11.571Z,99560.42
2022-12-25T00:13:21.711Z,99560.81
2022-12-25T00:13:31.637Z,99557.95
2022-12-25T00:13:41.537Z,99557.66
2022-12-25T00:13:51.612Z,99558.20
2022-12-25T00:14:01.554Z,99554.12
2022-12-25T00:14:11.547Z,99556.16
2022-12-25T00:14:21.570Z,99555.62
2022-12-25T00:14:31.636Z,99555.82
2022-12-25T00:14:41.636Z,99555.80
2022-12-25T00:14:51.647Z,99554.42
2022-12-25T00:15:01.585Z,99555.35
2022-12-25T00:15:11.534Z,99552.61
2022-12-25T00:15:21.604Z,99555.41
2022-12-25T00:15:31.566Z,99556.34
2022-12-25T00:15:41.561Z,99557.38
2022-12-25T00:15:51.558Z,99554.48
2022-12-25T00:16:01.642Z,99553.84
2022-12-25T00:16:11.746Z,99551.10
2022-12-25T00:16:21.743Z,99556.78
2022-12-25T00:16:31.581Z,99561.09
2022-12-25T00:16:41.620Z,99556.59
2022-12-25T00:16:51.530Z,99558.48
2022-12-25T00:17:01.668Z,99555.36
2022-12-25T00:17:11.612Z,99555.74
2022-12-25T00:17:21.662Z,99557.22
2022-12-25T00:17:31.650Z,99556.27
2022-12-25T00:17:41.642Z,99557.39
2022-12-25T00:17:51.654Z,99557.88
2022-12-25T00:18:01.659Z,99558.56
2022-12-25T00:18:11.571Z,99557.00
2022-12-25T00:18:21.521Z,99558.70
2022-12-25T00:18:31.533Z,99559.50
2022-12-25T00:18:41.580Z,99557.03
2022-12-25T00:18:51.740Z,99556.89
2022-12-25T00:19:01.623Z,99558.52
2022-12-25T00:19:11.545Z,99560.00
2022-12-25T00:19:21.643Z,99559.89
2022-12-25T00:19:31.581Z,99561.59
2022-12-25T00:19:41.589Z,99556.48
2022-12-25T00:19:51.571Z,99558.95
2022-12-25T00:20:01.573Z,99560.80
2022-12-25T00:20:11.545Z,99559.37
2022-12-25T00:20:21.575Z,99557.14
2022-12-25T00:20:31.545Z,99560.33
2022-12-25T00:20:41.526Z,99558.52
2022-12-25T00:20:51.652Z,99559.94
2022-12-25T00:21:01.563Z,99559.34
2022-12-25T00:21:11.556Z,99556.75
2022-12-25T00:21:21.565Z,99551.44
2022-12-25T00:21:31.581Z,99557.83
2022-12-25T00:21:41.575Z,99559.14
2022-12-25T00:21:51.561Z,99555.80
2022-12-25T00:22:01.653Z,99555.14
2022-12-25T00:22:11.653Z,99559.39
2022-12-25T00:22:21.568Z,99560.27
2022-12-25T00:22:31.581Z,99560.59
2022-12-25T00:22:41.665Z,99554.89
2022-12-25T00:22:51.543Z,99554.59
2022-12-25T00:23:01.639Z,99559.03
2022-12-25T00:23:11.600Z,99554.53
2022-12-25T00:23:21.663Z,99555.92
2022-12-25T00:23:31.645Z,99556.17
2022-12-25T00:23:41.633Z,99559.82
2022-12-25T00:23:51.624Z,99558.01
2022-12-25T00:24:01.643Z,99561.47
2022-12-25T00:24:11.598Z,99559.76
2022-12-25T00:24:21.600Z,99563.48
2022-12-25T00:24:31.552Z,99562.97
2022-12-25T00:24:41.648Z,99557.38
2022-12-25T00:24:51.645Z,99559.40
2022-12-25T00:25:01.612Z,99565.24
2022-12-25T00:25:11.517Z,99563.52
2022-12-25T00:25:21.584Z,99562.36
2022-12-25T00:25:31.610Z,99561.52
2022-12-25T00:25:41.586Z,99563.16
2022-12-25T00:25:51.626Z,99566.94
2022-12-25T00:26:01.739Z,99563.33
2022-12-25T00:26:11.595Z,99567.11
2022-12-25T00:26:21.549Z,99562.50
2022-12-25T00:26:31.614Z,99569.03
2022-12-25T00:26:41.534Z,99567.05
2022-12-25T00:26:51.527Z,99568.64
2022-12-25T00:27:01.540Z,99561.53
2022-12-25T00:27:11.598Z,99563.16
2022-12-25T00:27:21.556Z,99561.34
2022-12-25T00:27:31.644Z,99563.66
2022-12-25T00:27:41.563Z,99566.31
2022-12-25T00:27:51.643Z,99562.03
2022-12-25T00:28:01.585Z,99565.38
2022-12-25T00:28:11.551Z,99570.89
2022-12-25T00:28:21.649Z,99567.52
2022-12-25T00:28:31.677Z,99562.09
2022-12-25T00:28:41.628Z,99563.02
2022-12-25T00:28:51.617Z,99565.80
2022-12-25T00:29:01.642Z,99564.14
2022-12-25T00:29:11.574Z,99570.65
2022-12-25T00:29:21.631Z,99563.62
2022-12-25T00:29:31.541Z,99570.27
2022-12-25T00:29:41.590Z,99569.06
2022-12-25T00:29:51.631Z,99566.37
2022-12-25T00:30:01.543Z,99567.69
2022-12-25T00:30:11.530Z,99567.36
2022-12-25T00:30:21.568Z,99567.60
2022-12-25T00:30:31.606Z,99566.06
2022-12-25T00:30:41.608Z,99568.64
2022-12-25T00:30:51.590Z,99566.83
2022-12-25T00:31:01.594Z,99567.27
2022-12-25T00:31:11.782Z,99569.08
2022-12-25T00:31:21.700Z,99571.93
2022-12-25T00:31:31.635Z,99567.27
2022-12-25T00:31:41.549Z,99574.02
2022-12-25T00:31:51.726Z,99568.94
2022-12-25T00:32:01.677Z,99565.79
2022-12-25T00:32:11.664Z,99566.92
2022-12-25T00:32:21.597Z,99570.09
2022-12-25T00:32:31.596Z,99570.05
2022-12-25T00:32:41.561Z,99566.62
2022-12-25T00:32:51.625Z,99563.81
2022-12-25T00:33:01.525Z,99569.41
2022-12-25T00:33:11.617Z,99565.85
2022-12-25T00:33:21.607Z,99567.58
2022-12-25T00:33:31.628Z,99563.44
2022-12-25T00:33:41.569Z,99564.59
2022-12-25T00:33:51.550Z,99563.80
2022-12-25T00:34:01.566Z,99565.09
2022-12-25T00:34:11.592Z,99567.64
2022-12-25T00:34:21.644Z,99567.74
2022-12-25T00:34:31.534Z,99562.78
2022-12-25T00:34:41.643Z,99562.37
2022-12-25T00:34:51.557Z,99562.86
2022-12-25T00:35:01.543Z,99560.72
2022-12-25T00:35:11.543Z,99563.47
2022-12-25T00:35:21.614Z,99561.05
2022-12-25T00:35:31.623Z,99560.48
2022-12-25T00:35:41.538Z,99562.70
2022-12-25T00:35:51.570Z,99558.34
2022-12-25T00:36:01.569Z,99562.37
2022-12-25T00:36:11.555Z,99562.92
2022-12-25T00:36:21.585Z,99559.00
2022-12-25T00:36:36.216Z,99562.78
2022-12-25T00:36:42.387Z,99563.55
2022-12-25T00:36:51.641Z,99563.63
2022-12-25T00:37:01.553Z,99561.74
2022-12-25T00:37:11.543Z,99563.88
2022-12-25T00:37:21.567Z,99563.41
2022-12-25T00:37:31.598Z,99566.19
2022-12-25T00:37:41.536Z,99566.20
2022-12-25T00:37:51.566Z,99566.48
2022-12-25T00:38:01.583Z,99563.47
2022-12-25T00:38:11.614Z,99566.16
2022-12-25T00:38:21.575Z,99563.03
2022-12-25T00:38:31.547Z,99569.23
2022-12-25T00:38:41.633Z,99565.28
2022-12-25T00:38:51.602Z,99563.14
2022-12-25T00:39:01.635Z,99567.25
2022-12-25T00:39:11.528Z,99565.61
2022-12-25T00:39:21.555Z,99566.19
2022-12-25T00:39:31.658Z,99566.52
2022-12-25T00:39:41.553Z,99569.38
2022-12-25T00:39:51.606Z,99570.44
2022-12-25T00:40:01.599Z,99572.66
2022-12-25T00:40:11.653Z,99569.84
2022-12-25T00:40:21.575Z,99571.42
2022-12-25T00:40:31.567Z,99573.62
2022-12-25T00:40:41.592Z,99577.81
2022-12-25T00:40:51.608Z,99572.88
2022-12-25T00:41:01.566Z,99571.41
2022-12-25T00:41:11.603Z,99574.50
2022-12-25T00:41:21.612Z,99570.08
2022-12-25T00:41:31.637Z,99575.59
2022-12-25T00:41:41.619Z,99576.75
2022-12-25T00:41:51.572Z,99575.52
2022-12-25T00:42:01.621Z,99577.16
2022-12-25T00:42:11.563Z,99577.44
2022-12-25T00:42:21.620Z,99575.66
2022-12-25T00:42:31.576Z,99578.12
2022-12-25T00:42:41.642Z,99583.08
2022-12-25T00:42:51.633Z,99583.93
2022-12-25T00:43:01.634Z,99582.56
2022-12-25T00:43:11.575Z,99582.67
2022-12-25T00:43:21.550Z,99576.99
2022-12-25T00:43:31.554Z,99579.88
2022-12-25T00:43:41.564Z,99581.73
2022-12-25T00:43:51.571Z,99581.91
2022-12-25T00:44:01.582Z,99584.20
2022-12-25T00:44:11.519Z,99582.42
2022-12-25T00:44:21.551Z,99580.26
2022-12-25T00:44:31.568Z,99577.27
2022-12-25T00:44:41.535Z,99580.28
2022-12-25T00:44:51.606Z,99578.45
2022-12-25T00:45:01.662Z,99579.58
2022-12-25T00:45:11.617Z,99575.68
2022-12-25T00:45:21.693Z,99580.86
2022-12-25T00:45:31.772Z,99577.95
2022-12-25T00:45:41.709Z,99585.63
2022-12-25T00:45:51.692Z,99582.67
2022-12-25T00:46:01.690Z,99581.68
2022-12-25T00:46:11.812Z,99583.08
2022-12-25T00:46:21.832Z,99586.56
2022-12-25T00:46:31.648Z,99584.48
2022-12-25T00:46:41.651Z,99584.48
2022-12-25T00:46:51.582Z,99587.61
2022-12-25T00:47:01.625Z,99588.70
2022-12-25T00:47:11.669Z,99588.54
2022-12-25T00:47:21.723Z,99590.19
2022-12-25T00:47:31.665Z,99590.41
2022-12-25T00:47:41.613Z,99584.73
2022-12-25T00:47:51.550Z,99589.50
2022-12-25T00:48:01.554Z,99591.17
2022-12-25T00:48:11.622Z,99588.12
2022-12-25T00:48:21.524Z,99588.52
2022-12-25T00:48:31.644Z,99590.20
2022-12-25T00:48:41.521Z,99589.72
2022-12-25T00:48:51.541Z,99588.29
2022-12-25T00:49:01.618Z,99586.75
2022-12-25T00:49:11.574Z,99590.30
2022-12-25T00:49:21.562Z,99591.85
2022-12-25T00:49:31.599Z,99592.02
2022-12-25T00:49:41.541Z,99587.27
2022-12-25T00:49:51.649Z,99591.06
2022-12-25T00:50:01.684Z,99592.73
2022-12-25T00:50:11.601Z,99593.38
2022-12-25T00:50:21.618Z,99588.59
2022-12-25T00:50:31.650Z,99595.69
2022-12-25T00:50:41.616Z,99593.77
2022-12-25T00:50:51.644Z,99595.52
2022-12-25T00:51:01.662Z,99596.62
2022-12-25T00:51:11.562Z,99595.36
2022-12-25T00:51:21.600Z,99596.46
2022-12-25T00:51:31.557Z,99598.27
2022-12-25T00:51:41.627Z,99599.67
2022-12-25T00:51:51.613Z,99601.23
2022-12-25T00:52:01.663Z,99600.33
2022-12-25T00:52:11.581Z,99599.34
2022-12-25T00:52:21.656Z,99601.73
2022-12-25T00:52:31.568Z,99602.03
2022-12-25T00:52:41.565Z,99607.79
2022-12-25T00:52:51.612Z,99603.42
2022-12-25T00:53:01.635Z,99607.05
2022-12-25T00:53:11.558Z,99602.83
2022-12-25T00:53:21.519Z,99610.42
2022-12-25T00:53:31.557Z,99610.56
2022-12-25T00:53:41.529Z,99612.86
2022-12-25T00:53:51.655Z,99612.86
2022-12-25T00:54:01.533Z,99613.27
2022-12-25T00:54:11.618Z,99614.42
2022-12-25T00:54:21.657Z,99614.18
2022-12-25T00:54:31.591Z,99616.78
2022-12-25T00:54:41.707Z,99615.16
2022-12-25T00:54:51.641Z,99615.33
2022-12-25T00:55:01.656Z,99618.64
2022-12-25T00:55:11.643Z,99614.31
2022-12-25T00:55:21.637Z,99613.69
2022-12-25T00:55:31.523Z,99623.37
2022-12-25T00:55:41.548Z,99624.13
2022-12-25T00:55:51.547Z,99626.00
2022-12-25T00:56:01.631Z,99622.00
2022-12-25T00:56:11.656Z,99627.12
2022-12-25T00:56:21.618Z,99621.78
2022-12-25T00:56:31.607Z,99626.35
2022-12-25T00:56:41.524Z,99626.33
2022-12-25T00:56:51.538Z,99631.92
2022-12-25T00:57:01.584Z,99634.94
2022-12-25T00:57:11.619Z,99636.01
2022-12-25T00:57:21.525Z,99632.97
2022-12-25T00:57:31.593Z,99633.70
2022-12-25T00:57:41.595Z,99633.02
2022-12-25T00:57:51.637Z,99638.55
2022-12-25T00:58:01.552Z,99638.72
2022-12-25T00:58:11.631Z,99638.55
2022-12-25T00:58:21.547Z,99640.09
2022-12-25T00:58:31.621Z,99637.32
2022-12-25T00:58:41.566Z,99638.64
2022-12-25T00:58:51.631Z,99640.80
2022-12-25T00:59:01.615Z,99639.70
2022-12-25T00:59:11.620Z,99644.89
2022-12-25T00:59:21.643Z,99642.67
2022-12-25T00:59:31.639Z,99643.05
2022-12-25T00:59:41.609Z,99644.86
2022-12-25T00:59:51.651Z,99645.05
2022-12-25T01:00:01.560Z,99642.92
2022-12-25T01:00:11.572Z,99640.28
2022-12-25T01:00:21.550Z,99642.70
2022-12-25T01:00:31.795Z,99641.88
2022-12-25T01:00:41.670Z,99644.34
2022-12-25T01:00:51.622Z,99645.73
2022-12-25T01:01:01.679Z,99644.75
2022-12-25T01:01:11.697Z,99645.14
2022-12-25T01:01:21.715Z,99648.54
2022-12-25T01:01:31.763Z,99648.38
2022-12-25T01:01:41.810Z,99651.25
2022-12-25T01:01:51.717Z,99647.61
2022-12-25T01:02:01.588Z,99649.06
2022-12-25T01:02:11.651Z,99652.23
2022-12-25T01:02:21.712Z,99651.03
2022-12-25T01:02:31.763Z,99652.54
2022-12-25T01:02:41.682Z,99652.65
2022-12-25T01:02:51.756Z,99651.14
2022-12-25T01:03:01.794Z,99652.57
2022-12-25T01:03:11.594Z,99652.05
2022-12-25T01:03:21.610Z,99650.34
2022-12-25T01:03:31.675Z,99648.98
2022-12-25T01:03:41.520Z,99652.54
2022-12-25T01:03:51.535Z,99650.31
2022-12-25T01:04:01.639Z,99648.18
2022-12-25T01:04:11.644Z,99649.11
2022-12-25T01:04:21.619Z,99649.14
2022-12-25T01:04:31.616Z,99648.15
2022-12-25T01:04:41.606Z,99645.35
2022-12-25T01:04:51.525Z,99646.29
2022-12-25T01:05:01.651Z,99650.19
2022-12-25T01:05:11.647Z,99645.66
2022-12-25T01:05:21.638Z,99646.12
2022-12-25T01:05:31.602Z,99646.81
2022-12-25T01:05:41.616Z,99646.64
2022-12-25T01:05:51.604Z,99644.78
2022-12-25T01:06:01.540Z,99642.69
2022-12-25T01:06:11.604Z,99646.31
2022-12-25T01:06:21.587Z,99644.28
2022-12-25T01:06:31.646Z,99641.68
2022-12-25T01:06:41.581Z,99643.80
2022-12-25T01:06:51.520Z,99641.90
2022-12-25T01:07:01.574Z,99639.43
2022-12-25T01:07:11.596Z,99644.78
2022-12-25T01:07:21.647Z,99639.52
2022-12-25T01:07:31.583Z,99636.20
2022-12-25T01:07:41.621Z,99640.01
2022-12-25T01:07:51.634Z,99639.95
2022-12-25T01:08:01.584Z,99640.28
2022-12-25T01:08:11.612Z,99642.26
2022-12-25T01:08:21.574Z,99639.62
2022-12-25T01:08:31.580Z,99641.08
2022-12-25T01:08:41.612Z,99636.09
2022-12-25T01:08:51.636Z,99636.25
2022-12-25T01:09:01.524Z,99635.92
2022-12-25T01:09:11.614Z,99638.50
2022-12-25T01:09:21.644Z,99637.16
2022-12-25T01:09:31.608Z,99641.76
2022-12-25T01:09:41.564Z,99638.12
2022-12-25T01:09:51.576Z,99637.48
2022-12-25T01:10:01.630Z,99638.72
2022-12-25T01:10:11.649Z,99641.02
2022-12-25T01:10:21.542Z,99637.41
2022-12-25T01:10:31.588Z,99637.52
2022-12-25T01:10:41.540Z,99639.08
2022-12-25T01:10:51.579Z,99637.38
2022-12-25T01:11:01.551Z,99638.86
2022-12-25T01:11:11.582Z,99640.99
2022-12-25T01:11:21.598Z,99640.50
2022-12-25T01:11:31.651Z,99637.70
2022-12-25T01:11:41.627Z,99632.22
2022-12-25T01:11:51.561Z,99634.94
2022-12-25T01:12:01.531Z,99636.99
2022-12-25T01:12:11.623Z,99638.30
2022-12-25T01:12:21.592Z,99641.10
2022-12-25T01:12:31.584Z,99635.92
2022-12-25T01:12:41.582Z,99636.74
2022-12-25T01:12:51.560Z,99639.98
2022-12-25T01:13:01.519Z,99635.02
2022-12-25T01:13:11.618Z,99639.62
2022-12-25T01:13:21.542Z,99644.22
2022-12-25T01:13:31.653Z,99643.77
2022-12-25T01:13:41.575Z,99641.67
2022-12-25T01:13:51.553Z,99642.25
2022-12-25T01:14:01.574Z,99643.32
2022-12-25T01:14:11.591Z,99642.58
2022-12-25T01:14:21.607Z,99641.19
2022-12-25T01:14:31.553Z,99642.89
2022-12-25T01:14:41.571Z,99644.22
2022-12-25T01:14:51.580Z,99642.39
2022-12-25T01:15:01.621Z,99639.70
2022-12-25T01:15:11.637Z,99644.80
2022-12-25T01:15:21.617Z,99642.42
2022-12-25T01:15:31.656Z,99646.15
2022-12-25T01:15:41.648Z,99643.45
2022-12-25T01:15:51.667Z,99645.16
2022-12-25T01:16:01.640Z,99640.66
2022-12-25T01:16:11.695Z,99644.91
2022-12-25T01:16:21.710Z,99643.05
2022-12-25T01:16:31.713Z,99641.12
2022-12-25T01:16:41.779Z,99645.56
2022-12-25T01:16:51.696Z,99646.31
2022-12-25T01:17:01.542Z,99647.12
2022-12-25T01:17:11.617Z,99646.03
2022-12-25T01:17:21.659Z,99643.67
2022-12-25T01:17:31.623Z,99647.16
2022-12-25T01:17:41.621Z,99644.93
2022-12-25T01:17:51.564Z,99646.93
2022-12-25T01:18:07.597Z,99644.05
2022-12-25T01:18:12.977Z,99650.48
2022-12-25T01:18:21.534Z,99646.23
2022-12-25T01:18:31.649Z,99653.23
2022-12-25T01:18:41.636Z,99653.16
2022-12-25T01:18:51.580Z,99648.25
2022-12-25T01:19:01.715Z,99643.52
2022-12-25T01:19:11.614Z,99649.52
2022-12-25T01:19:21.619Z,99648.00
2022-12-25T01:19:31.637Z,99645.95
2022-12-25T01:19:41.636Z,99647.23
2022-12-25T01:19:51.666Z,99647.06
2022-12-25T01:20:01.655Z,99645.28
2022-12-25T01:20:11.545Z,99646.59
2022-12-25T01:20:21.520Z,99647.22
2022-12-25T01:20:31.659Z,99647.45
2022-12-25T01:20:41.641Z,99646.42
2022-12-25T01:20:51.606Z,99645.41
2022-12-25T01:21:01.543Z,99645.79
2022-12-25T01:21:11.649Z,99646.41
2022-12-25T01:21:21.632Z,99644.52
2022-12-25T01:21:31.545Z,99644.22
2022-12-25T01:21:41.568Z,99642.38
2022-12-25T01:21:51.599Z,99648.86
2022-12-25T01:22:01.693Z,99643.91
2022-12-25T01:22:11.606Z,99646.37
2022-12-25T01:22:21.584Z,99648.28
2022-12-25T01:22:31.625Z,99649.46
2022-12-25T01:22:41.635Z,99640.88
2022-12-25T01:22:51.652Z,99641.67
2022-12-25T01:23:01.562Z,99641.68
2022-12-25T01:23:11.520Z,99640.03
2022-12-25T01:23:21.627Z,99643.45
2022-12-25T01:23:31.538Z,99644.83
2022-12-25T01:23:41.612Z,99644.17
2022-12-25T01:23:51.561Z,99637.76
2022-12-25T01:24:01.567Z,99641.48
2022-12-25T01:24:11.583Z,99641.18
2022-12-25T01:24:21.659Z,99643.97
2022-12-25T01:24:31.603Z,99644.95
2022-12-25T01:24:41.623Z,99642.95
2022-12-25T01:24:51.534Z,99644.61
2022-12-25T01:25:01.581Z,99643.75
2022-12-25T01:25:11.644Z,99646.57
2022-12-25T01:25:21.640Z,99646.68
2022-12-25T01:25:31.599Z,99648.08
2022-12-25T01:25:41.600Z,99644.70
2022-12-25T01:25:51.581Z,99647.83
2022-12-25T01:26:01.588Z,99646.73
2022-12-25T01:26:11.623Z,99649.65
2022-12-25T01:26:21.599Z,99648.99
2022-12-25T01:26:31.552Z,99652.12
2022-12-25T01:26:41.561Z,99650.70
2022-12-25T01:26:51.653Z,99649.73
2022-12-25T01:27:01.554Z,99652.74
2022-12-25T01:27:11.580Z,99648.71
2022-12-25T01:27:21.560Z,99652.22
2022-12-25T01:27:31.591Z,99651.23
2022-12-25T01:27:41.550Z,99655.75
2022-12-25T01:27:51.569Z,99658.02
2022-12-25T01:28:01.656Z,99655.58
2022-12-25T01:28:11.570Z,99657.48
2022-12-25T01:28:21.526Z,99661.00
2022-12-25T01:28:31.569Z,99656.30
2022-12-25T01:28:41.593Z,99654.33
2022-12-25T01:28:51.614Z,99655.80
2022-12-25T01:29:01.622Z,99656.45
2022-12-25T01:29:11.549Z,99652.35
2022-12-25T01:29:21.584Z,99654.05
2022-12-25T01:29:31.648Z,99653.83
2022-12-25T01:29:41.654Z,99652.67
2022-12-25T01:29:51.623Z,99650.92
2022-12-25T01:30:01.580Z,99651.20
2022-12-25T01:30:11.574Z,99655.55
2022-12-25T01:30:21.591Z,99653.37
2022-12-25T01:30:31.653Z,99650.08
2022-12-25T01:30:41.536Z,99648.98
2022-12-25T01:30:51.569Z,99649.42
2022-12-25T01:31:01.542Z,99649.59
2022-12-25T01:31:11.736Z,99653.91
2022-12-25T01:31:21.712Z,99652.27
2022-12-25T01:31:31.571Z,99648.95
2022-12-25T01:31:41.669Z,99654.81
2022-12-25T01:31:51.689Z,99653.72
2022-12-25T01:32:01.646Z,99651.83
2022-12-25T01:32:11.607Z,99647.62
2022-12-25T01:32:21.580Z,99657.75
2022-12-25T01:32:31.569Z,99655.14
2022-12-25T01:32:41.538Z,99654.81
2022-12-25T01:32:51.546Z,99658.26
2022-12-25T01:33:01.621Z,99652.86
2022-12-25T01:33:11.621Z,99658.13
2022-12-25T01:33:21.588Z,99654.77
2022-12-25T01:33:31.631Z,99655.95
2022-12-25T01:33:41.553Z,99655.19
2022-12-25T01:33:51.526Z,99658.16
2022-12-25T01:34:01.568Z,99660.32
2022-12-25T01:34:11.560Z,99656.29
2022-12-25T01:34:21.560Z,99657.70
2022-12-25T01:34:31.567Z,99657.34
2022-12-25T01:34:41.623Z,99656.02
2022-12-25T01:34:55.888Z,99654.83
2022-12-25T01:35:01.701Z,99656.49
2022-12-25T01:35:11.634Z,99658.76
2022-12-25T01:35:21.660Z,99659.62
2022-12-25T01:35:31.575Z,99664.33
2022-12-25T01:35:41.636Z,99663.91
2022-12-25T01:35:51.553Z,99660.55
2022-12-25T01:36:01.556Z,99662.69
2022-12-25T01:36:11.576Z,99664.79
2022-12-25T01:36:21.535Z,99663.77
2022-12-25T01:36:31.637Z,99663.94
2022-12-25T01:36:41.590Z,99664.97
2022-12-25T01:36:51.613Z,99663.66
2022-12-25T01:37:01.640Z,99665.67
2022-12-25T01:37:11.552Z,99664.10
2022-12-25T01:37:21.531Z,99666.40
2022-12-25T01:37:31.578Z,99661.48
2022-12-25T01:37:41.526Z,99665.50
2022-12-25T01:37:51.649Z,99666.80
2022-12-25T01:38:01.573Z,99662.22
2022-12-25T01:38:11.612Z,99662.41
2022-12-25T01:38:21.676Z,99659.69
2022-12-25T01:38:31.661Z,99655.64
2022-12-25T01:38:41.604Z,99663.52
2022-12-25T01:38:51.664Z,99657.36
2022-12-25T01:39:01.618Z,99659.92
2022-12-25T01:39:11.598Z,99656.33
2022-12-25T01:39:21.592Z,99659.27
2022-12-25T01:39:31.615Z,99658.74
2022-12-25T01:39:41.577Z,99658.48
2022-12-25T01:39:51.579Z,99656.42
2022-12-25T01:40:01.643Z,99654.67
2022-12-25T01:40:11.572Z,99655.88
2022-12-25T01:40:21.660Z,99657.64
2022-12-25T01:40:31.623Z,99652.41
2022-12-25T01:40:41.594Z,99653.73
2022-12-25T01:40:51.563Z,99654.22
2022-12-25T01:41:01.521Z,99652.09
2022-12-25T01:41:11.543Z,99655.73
2022-12-25T01:41:21.599Z,99652.74
2022-12-25T01:41:31.632Z,99655.62
2022-12-25T01:41:41.547Z,99656.19
2022-12-25T01:41:51.534Z,99654.27
2022-12-25T01:42:01.575Z,99653.38
2022-12-25T01:42:11.632Z,99652.69
2022-12-25T01:42:21.565Z,99659.09
2022-12-25T01:42:31.588Z,99648.00
2022-12-25T01:42:41.620Z,99650.58
2022-12-25T01:42:51.626Z,99651.99
2022-12-25T01:43:01.541Z,99651.34
2022-12-25T01:43:17.038Z,99651.03
2022-12-25T01:43:21.643Z,99651.12
2022-12-25T01:43:31.589Z,99654.16
2022-12-25T01:43:41.613Z,99649.75
2022-12-25T01:43:51.556Z,99653.56
2022-12-25T01:44:01.523Z,99648.48
2022-12-25T01:44:11.652Z,99650.42
2022-12-25T01:44:21.593Z,99651.66
2022-12-25T01:44:31.646Z,99647.56
2022-12-25T01:44:41.568Z,99647.07
2022-12-25T01:44:51.521Z,99647.38
2022-12-25T01:45:01.586Z,99648.72
2022-12-25T01:45:11.552Z,99648.18
2022-12-25T01:45:21.689Z,99649.27
2022-12-25T01:45:31.691Z,99645.31
2022-12-25T01:45:41.618Z,99647.23
2022-12-25T01:45:51.600Z,99649.23
2022-12-25T01:46:01.654Z,99650.00
2022-12-25T01:46:11.612Z,99652.55
2022-12-25T01:46:21.647Z,99649.11
2022-12-25T01:46:31.580Z,99649.36
2022-12-25T01:46:41.553Z,99653.47
2022-12-25T01:46:51.650Z,99657.62
2022-12-25T01:47:01.604Z,99653.69
2022-12-25T01:47:11.619Z,99653.16
2022-12-25T01:47:21.605Z,99652.70
2022-12-25T01:47:31.652Z,99654.51
2022-12-25T01:47:41.655Z,99651.19
2022-12-25T01:47:51.549Z,99650.18
2022-12-25T01:48:01.579Z,99657.13
2022-12-25T01:48:11.628Z,99656.80
2022-12-25T01:48:21.590Z,99653.48
2022-12-25T01:48:31.596Z,99650.37
2022-12-25T01:48:41.640Z,99650.18
2022-12-25T01:48:51.531Z,99648.45
2022-12-25T01:49:01.592Z,99646.86
2022-12-25T01:49:11.531Z,99653.05
2022-12-25T01:49:21.527Z,99652.30
2022-12-25T01:49:31.594Z,99653.96
2022-12-25T01:49:41.631Z,99650.75
2022-12-25T01:49:51.618Z,99652.52
2022-12-25T01:50:01.550Z,99654.30
2022-12-25T01:50:11.613Z,99651.50
2022-12-25T01:50:21.631Z,99654.02
2022-12-25T01:50:31.532Z,99650.59
2022-12-25T01:50:41.625Z,99650.75
2022-12-25T01:50:51.657Z,99647.02
2022-12-25T01:51:01.606Z,99652.76
2022-12-25T01:51:11.661Z,99651.58
2022-12-25T01:51:21.590Z,99651.62
2022-12-25T01:51:31.574Z,99648.09
2022-12-25T01:51:41.576Z,99647.77
2022-12-25T01:51:51.629Z,99647.67
2022-12-25T01:52:01.561Z,99651.50
2022-12-25T01:52:11.651Z,99648.41
2022-12-25T01:52:24.112Z,99644.91
2022-12-25T01:52:31.566Z,99647.11
2022-12-25T01:52:41.632Z,99646.69
2022-12-25T01:52:51.605Z,99646.63
2022-12-25T01:53:01.621Z,99646.80
2022-12-25T01:53:11.519Z,99643.99
2022-12-25T01:53:21.615Z,99644.27
2022-12-25T01:53:31.563Z,99646.62
2022-12-25T01:53:41.538Z,99648.72
2022-12-25T01:53:51.628Z,99647.86
2022-12-25T01:54:01.631Z,99642.98
2022-12-25T01:54:11.568Z,99640.27
2022-12-25T01:54:21.523Z,99644.19
2022-12-25T01:54:31.565Z,99640.66
2022-12-25T01:54:41.566Z,99638.53
2022-12-25T01:54:51.539Z,99639.59
2022-12-25T01:55:01.691Z,99635.71
2022-12-25T01:55:11.591Z,99636.44
2022-12-25T01:55:21.652Z,99636.33
2022-12-25T01:55:31.587Z,99631.23
2022-12-25T01:55:41.591Z,99634.11
2022-12-25T01:55:51.618Z,99632.62
2022-12-25T01:56:01.534Z,99631.75
2022-12-25T01:56:11.556Z,99637.21
2022-12-25T01:56:21.569Z,99632.28
2022-12-25T01:56:31.583Z,99636.20
2022-12-25T01:56:41.586Z,99637.47
2022-12-25T01:56:51.543Z,99630.81
2022-12-25T01:57:01.619Z,99632.27
2022-12-25T01:57:11.606Z,99631.69
2022-12-25T01:57:21.663Z,99633.53